Wetterdaten: Woche 01.02.21 - 07.02.21 (KW5)
Datum Zeit Temp. A. Feuchte A. Luftdruck Regen Wind Richtung Taupunkt Windchill Windben
01.02.2021 00:00 -3,9 C 82 % 1002,7 hPa 0,0 l/m 0,0 km/h N -6,5 C -3,9 C 0,0 km/h
01.02.2021 01:00 -4,4 C 83 % 1002,3 hPa 0,0 l/m 0,0 km/h N -6,9 C -4,4 C 0,0 km/h
01.02.2021 02:00 -4,9 C 83 % 1002,0 hPa 0,0 l/m 0,0 km/h N -7,4 C -4,9 C 0,0 km/h
01.02.2021 03:00 -5,2 C 83 % 1001,5 hPa 0,0 l/m 0,0 km/h N -7,6 C -5,2 C 0,0 km/h
01.02.2021 04:00 -5,4 C 83 % 1001,0 hPa 0,0 l/m 0,0 km/h N -7,8 C -5,4 C 0,0 km/h
01.02.2021 05:00 -5,2 C 83 % 1000,6 hPa 0,0 l/m 0,0 km/h N -7,6 C -5,2 C 0,0 km/h
01.02.2021 06:00 -4,7 C 83 % 1000,5 hPa 0,0 l/m 0,0 km/h N -7,1 C -4,7 C 0,0 km/h
01.02.2021 07:00 -5,0 C 83 % 1000,6 hPa 0,0 l/m 0,0 km/h N -7,4 C -5,0 C 0,0 km/h
01.02.2021 08:00 -5,0 C 83 % 1000,8 hPa 0,0 l/m 0,0 km/h N -7,5 C -5,0 C 0,0 km/h
01.02.2021 09:00 -3,6 C 82 % 1000,8 hPa 0,0 l/m 0,0 km/h N -6,2 C -3,6 C 0,4 km/h
01.02.2021 10:00 -1,6 C 82 % 1000,7 hPa 0,0 l/m 0,0 km/h N -4,2 C -1,6 C 0,0 km/h
01.02.2021 11:00 -0,3 C 82 % 1000,5 hPa 0,0 l/m 0,0 km/h N -3,0 C -0,3 C 0,0 km/h
01.02.2021 12:00 1,4 C 82 % 1000,0 hPa 0,0 l/m 0,3 km/h N -1,3 C 1,4 C 2,8 km/h
01.02.2021 13:00 2,5 C 82 % 999,7 hPa 0,0 l/m 0,1 km/h N -0,3 C 2,5 C 2,0 km/h
01.02.2021 14:00 3,4 C 79 % 999,5 hPa 0,0 l/m 0,0 km/h N 0,1 C 3,4 C 0,4 km/h
01.02.2021 15:00 4,1 C 75 % 999,7 hPa 0,0 l/m 0,0 km/h N -0,0 C 4,1 C 0,0 km/h
01.02.2021 16:00 3,1 C 74 % 1000,1 hPa 0,0 l/m 0,0 km/h N -1,1 C 3,1 C 0,4 km/h
01.02.2021 17:00 1,2 C 76 % 1000,8 hPa 0,0 l/m 0,0 km/h N -2,6 C 1,2 C 0,0 km/h
01.02.2021 18:00 -0,4 C 77 % 1001,6 hPa 0,0 l/m 0,0 km/h N -4,0 C -0,4 C 0,0 km/h
01.02.2021 19:00 -1,6 C 79 % 1002,3 hPa 0,0 l/m 0,0 km/h N -4,8 C -1,6 C 0,0 km/h
01.02.2021 20:00 -2,2 C 81 % 1003,1 hPa 0,0 l/m 0,0 km/h N -5,0 C -2,2 C 0,0 km/h
01.02.2021 21:00 -2,7 C 82 % 1003,5 hPa 0,0 l/m 0,0 km/h N -5,4 C -2,7 C 0,0 km/h
01.02.2021 22:00 -3,2 C 82 % 1004,0 hPa 0,0 l/m 0,0 km/h N -5,8 C -3,2 C 0,0 km/h
01.02.2021 23:00 -3,0 C 83 % 1004,7 hPa 0,0 l/m 0,0 km/h N -5,5 C -3,0 C 0,0 km/h
02.02.2021 00:00 -2,2 C 83 % 1005,2 hPa 0,0 l/m 0,0 km/h N -4,6 C -2,2 C 0,0 km/h
02.02.2021 01:00 -1,8 C 83 % 1005,7 hPa 0,0 l/m 0,0 km/h N -4,3 C -1,8 C 0,0 km/h
02.02.2021 02:00 -1,5 C 83 % 1006,0 hPa 0,0 l/m 0,0 km/h N -4,0 C -1,5 C 0,0 km/h
02.02.2021 03:00 -1,1 C 83 % 1006,3 hPa 0,0 l/m 0,0 km/h N -3,7 C -1,1 C 0,0 km/h
02.02.2021 04:00 -0,6 C 83 % 1007,0 hPa 0,0 l/m 0,0 km/h N -3,2 C -0,6 C 0,0 km/h
02.02.2021 05:00 -0,3 C 83 % 1007,3 hPa 0,0 l/m 0,0 km/h N -2,9 C -0,3 C 0,0 km/h
02.02.2021 06:00 -0,3 C 83 % 1008,0 hPa 0,0 l/m 0,0 km/h N -2,8 C -0,3 C 0,0 km/h
02.02.2021 07:00 -0,2 C 83 % 1008,7 hPa 0,0 l/m 0,0 km/h N -2,8 C -0,2 C 0,0 km/h
02.02.2021 08:00 -0,0 C 83 % 1009,3 hPa 0,0 l/m 0,0 km/h N -2,5 C -0,0 C 0,0 km/h
02.02.2021 09:00 0,5 C 83 % 1009,8 hPa 0,0 l/m 0,0 km/h N -2,1 C 0,5 C 2,4 km/h
02.02.2021 10:00 1,1 C 83 % 1010,2 hPa 0,0 l/m 0,1 km/h N -1,5 C 1,1 C 2,8 km/h
02.02.2021 11:00 2,4 C 83 % 1010,3 hPa 0,0 l/m 0,0 km/h N -0,2 C 2,4 C 1,2 km/h
02.02.2021 12:00 4,3 C 81 % 1009,9 hPa 0,0 l/m 0,1 km/h N 1,4 C 4,3 C 2,4 km/h
02.02.2021 13:00 5,6 C 77 % 1009,5 hPa 0,0 l/m 0,2 km/h N 2,0 C 5,6 C 3,2 km/h
02.02.2021 14:00 5,8 C 74 % 1009,1 hPa 0,0 l/m 0,1 km/h N 1,6 C 5,8 C 3,2 km/h
02.02.2021 15:00 5,6 C 76 % 1008,8 hPa 0,0 l/m 0,0 km/h N 1,7 C 5,6 C 1,2 km/h
02.02.2021 16:00 5,4 C 77 % 1008,6 hPa 0,0 l/m 0,0 km/h N 1,6 C 5,4 C 0,4 km/h
02.02.2021 17:00 4,6 C 79 % 1008,5 hPa 0,0 l/m 0,0 km/h N 1,2 C 4,6 C 0,0 km/h
02.02.2021 18:00 3,7 C 80 % 1008,4 hPa 0,0 l/m 0,1 km/h N 0,6 C 3,7 C 2,0 km/h
02.02.2021 19:00 2,9 C 82 % 1008,3 hPa 0,0 l/m 0,0 km/h N 0,1 C 2,9 C 0,8 km/h
02.02.2021 20:00 2,3 C 82 % 1008,5 hPa 0,0 l/m 0,0 km/h N -0,4 C 2,3 C 0,0 km/h
02.02.2021 21:00 2,0 C 83 % 1008,8 hPa 0,0 l/m 0,0 km/h N -0,6 C 2,0 C 0,0 km/h
02.02.2021 22:00 1,7 C 83 % 1008,4 hPa 0,0 l/m 0,0 km/h N -0,8 C 1,7 C 0,0 km/h
02.02.2021 23:00 1,6 C 83 % 1008,3 hPa 0,3 l/m 0,0 km/h N -0,9 C 1,6 C 0,0 km/h
03.02.2021 00:00 1,7 C 83 % 1008,3 hPa 0,0 l/m 0,0 km/h N -0,9 C 1,7 C 0,8 km/h
03.02.2021 01:00 1,9 C 82 % 1008,7 hPa 0,0 l/m 0,0 km/h N -0,8 C 1,9 C 0,4 km/h
03.02.2021 02:00 2,1 C 82 % 1008,7 hPa 1,3 l/m 0,0 km/h N -0,7 C 2,1 C 0,0 km/h
03.02.2021 03:00 2,2 C 82 % 1008,4 hPa 1,0 l/m 0,0 km/h N -0,6 C 2,2 C 0,0 km/h
03.02.2021 04:00 2,2 C 82 % 1008,3 hPa 0,0 l/m 0,0 km/h N -0,5 C 2,2 C 0,8 km/h
03.02.2021 05:00 2,3 C 82 % 1009,0 hPa 0,3 l/m 0,0 km/h N -0,4 C 2,3 C 0,8 km/h
03.02.2021 06:00 1,9 C 82 % 1009,0 hPa 0,0 l/m 0,0 km/h N -0,9 C 1,9 C 0,0 km/h
03.02.2021 07:00 1,6 C 82 % 1009,5 hPa 0,0 l/m 0,0 km/h N -1,2 C 1,6 C 0,8 km/h
03.02.2021 08:00 1,5 C 82 % 1009,5 hPa 0,0 l/m 0,0 km/h N -1,2 C 1,5 C 0,0 km/h
03.02.2021 09:00 2,7 C 82 % 1009,5 hPa 0,0 l/m 0,0 km/h N -0,1 C 2,7 C 0,0 km/h
03.02.2021 10:00 3,4 C 82 % 1009,2 hPa 0,0 l/m 0,0 km/h N 0,7 C 3,4 C 1,6 km/h
03.02.2021 11:00 3,9 C 82 % 1008,8 hPa 0,0 l/m 0,0 km/h N 1,1 C 3,9 C 0,4 km/h
03.02.2021 12:00 3,9 C 82 % 1007,8 hPa 0,0 l/m 0,0 km/h N 1,1 C 3,9 C 0,0 km/h
03.02.2021 13:00 4,2 C 82 % 1006,6 hPa 0,0 l/m 0,1 km/h N 1,4 C 4,2 C 3,2 km/h
03.02.2021 14:00 4,5 C 82 % 1005,2 hPa 0,0 l/m 0,1 km/h N 1,7 C 4,5 C 4,0 km/h
03.02.2021 15:00 4,7 C 82 % 1004,5 hPa 0,0 l/m 0,0 km/h N 1,9 C 4,7 C 0,0 km/h
03.02.2021 16:00 4,9 C 82 % 1004,2 hPa 0,0 l/m 0,0 km/h N 2,1 C 4,9 C 0,8 km/h
03.02.2021 17:00 4,2 C 82 % 1004,3 hPa 0,0 l/m 0,0 km/h N 1,4 C 4,2 C 0,0 km/h
03.02.2021 18:00 3,2 C 82 % 1004,6 hPa 0,0 l/m 0,0 km/h N 0,4 C 3,2 C 1,2 km/h
03.02.2021 19:00 2,4 C 82 % 1005,1 hPa 0,0 l/m 0,0 km/h N -0,3 C 2,4 C 0,0 km/h
03.02.2021 20:00 2,1 C 82 % 1006,0 hPa 0,0 l/m 0,0 km/h N -0,7 C 2,1 C 0,0 km/h
03.02.2021 21:00 5,4 C 83 % 1005,8 hPa 0,0 l/m 2,2 km/h N 2,7 C 5,4 C 10,5 km/h
03.02.2021 22:00 10,1 C 79 % 1005,4 hPa 0,0 l/m 6,6 km/h N 6,5 C 9,8 C 22,9 km/h
03.02.2021 23:00 11,0 C 70 % 1005,4 hPa 0,0 l/m 5,5 km/h N 5,7 C 10,9 C 20,5 km/h
04.02.2021 00:00 11,1 C 66 % 1005,1 hPa 0,0 l/m 3,8 km/h N 5,1 C 11,1 C 19,3 km/h
04.02.2021 01:00 12,4 C 60 % 1005,0 hPa 0,0 l/m 9,9 km/h N 4,9 C 10,3 C 33,4 km/h
04.02.2021 02:00 12,5 C 58 % 1005,5 hPa 0,0 l/m 7,4 km/h N 4,3 C 11,6 C 30,6 km/h
04.02.2021 03:00 12,9 C 55 % 1005,4 hPa 0,0 l/m 7,6 km/h N 4,1 C 12,2 C 33,4 km/h
04.02.2021 04:00 12,9 C 55 % 1006,1 hPa 0,0 l/m 10,2 km/h N 4,0 C 10,7 C 42,7 km/h
04.02.2021 05:00 12,4 C 57 % 1007,0 hPa 0,0 l/m 11,8 km/h N 4,0 C 9,4 C 42,3 km/h
04.02.2021 06:00 11,9 C 57 % 1007,3 hPa 0,0 l/m 15,0 km/h N 3,6 C 7,4 C 44,7 km/h
04.02.2021 07:00 11,1 C 60 % 1008,4 hPa 0,0 l/m 15,7 km/h N 3,5 C 6,1 C 42,7 km/h
04.02.2021 08:00 10,7 C 61 % 1009,9 hPa 0,0 l/m 17,6 km/h N 3,5 C 5,0 C 43,9 km/h
04.02.2021 09:00 10,5 C 62 % 1010,8 hPa 0,0 l/m 20,4 km/h N 3,5 C 3,8 C 49,1 km/h
04.02.2021 10:00 10,6 C 59 % 1011,9 hPa 0,0 l/m 18,9 km/h N 2,9 C 4,5 C 46,3 km/h
04.02.2021 11:00 11,3 C 57 % 1012,9 hPa 0,0 l/m 13,8 km/h N 3,1 C 7,3 C 39,8 km/h
04.02.2021 12:00 11,9 C 55 % 1013,5 hPa 0,0 l/m 10,1 km/h N 3,0 C 9,6 C 34,6 km/h
04.02.2021 13:00 11,9 C 55 % 1014,3 hPa 0,0 l/m 7,3 km/h N 3,2 C 11,0 C 33,8 km/h
04.02.2021 14:00 12,1 C 55 % 1015,3 hPa 0,0 l/m 3,3 km/h N 3,2 C 12,1 C 16,9 km/h
04.02.2021 15:00 11,5 C 58 % 1015,3 hPa 0,0 l/m 5,9 km/h N 3,4 C 11,3 C 22,5 km/h
04.02.2021 16:00 10,9 C 59 % 1015,6 hPa 0,0 l/m 3,2 km/h N 3,2 C 10,9 C 16,5 km/h
04.02.2021 17:00 9,6 C 63 % 1016,2 hPa 0,0 l/m 0,3 km/h N 2,8 C 9,6 C 3,2 km/h
04.02.2021 18:00 6,6 C 67 % 1016,8 hPa 0,0 l/m 0,0 km/h N 0,9 C 6,6 C 0,0 km/h
04.02.2021 19:00 4,2 C 74 % 1017,0 hPa 0,0 l/m 0,0 km/h N 0,1 C 4,2 C 0,0 km/h
04.02.2021 20:00 3,8 C 80 % 1016,9 hPa 0,0 l/m 0,0 km/h N 0,6 C 3,8 C 0,4 km/h
04.02.2021 21:00 4,2 C 81 % 1017,0 hPa 0,0 l/m 0,0 km/h N 1,2 C 4,2 C 0,0 km/h
04.02.2021 22:00 3,8 C 81 % 1017,1 hPa 0,0 l/m 0,0 km/h N 0,9 C 3,8 C 0,0 km/h
04.02.2021 23:00 3,4 C 81 % 1017,0 hPa 0,0 l/m 0,0 km/h N 0,5 C 3,4 C 0,0 km/h
05.02.2021 00:00 3,0 C 82 % 1017,2 hPa 0,0 l/m 0,0 km/h N 0,2 C 3,0 C 0,0 km/h
05.02.2021 01:00 2,9 C 82 % 1017,2 hPa 0,0 l/m 0,0 km/h N 0,1 C 2,9 C 0,0 km/h
05.02.2021 02:00 2,9 C 82 % 1016,8 hPa 0,0 l/m 0,0 km/h N 0,2 C 2,9 C 0,0 km/h
05.02.2021 03:00 2,8 C 82 % 1016,2 hPa 0,0 l/m 0,0 km/h N 0,1 C 2,8 C 0,0 km/h
05.02.2021 04:00 2,7 C 82 % 1015,7 hPa 0,0 l/m 0,0 km/h N -0,0 C 2,7 C 0,0 km/h
05.02.2021 05:00 2,6 C 82 % 1015,8 hPa 0,0 l/m 0,0 km/h N -0,1 C 2,6 C 0,0 km/h
05.02.2021 06:00 2,3 C 82 % 1015,9 hPa 0,0 l/m 0,0 km/h N -0,5 C 2,3 C 0,0 km/h
05.02.2021 07:00 1,9 C 82 % 1015,8 hPa 0,0 l/m 0,0 km/h N -0,9 C 1,9 C 0,0 km/h
05.02.2021 08:00 1,5 C 82 % 1016,0 hPa 0,0 l/m 0,0 km/h N -1,2 C 1,5 C 0,0 km/h
05.02.2021 09:00 2,8 C 82 % 1016,0 hPa 0,0 l/m 0,0 km/h N 0,0 C 2,8 C 0,0 km/h
05.02.2021 10:00 4,2 C 81 % 1016,3 hPa 0,0 l/m 0,1 km/h N 1,2 C 4,2 C 0,8 km/h
05.02.2021 11:00 5,9 C 82 % 1016,3 hPa 0,0 l/m 0,3 km/h N 3,0 C 5,9 C 4,8 km/h
05.02.2021 12:00 7,1 C 78 % 1015,8 hPa 0,0 l/m 0,0 km/h N 3,5 C 7,1 C 0,0 km/h
05.02.2021 13:00 7,8 C 74 % 1015,3 hPa 0,0 l/m 0,0 km/h N 3,5 C 7,8 C 0,8 km/h
05.02.2021 14:00 8,8 C 73 % 1014,9 hPa 0,0 l/m 0,0 km/h N 4,2 C 8,8 C 0,0 km/h
05.02.2021 15:00 8,7 C 72 % 1014,8 hPa 0,0 l/m 0,0 km/h N 4,0 C 8,7 C 0,0 km/h
05.02.2021 16:00 8,1 C 73 % 1014,6 hPa 0,0 l/m 0,0 km/h N 3,6 C 8,1 C 0,0 km/h
05.02.2021 17:00 6,7 C 75 % 1014,7 hPa 0,0 l/m 0,0 km/h N 2,6 C 6,7 C 0,0 km/h
05.02.2021 18:00 5,7 C 78 % 1014,8 hPa 0,0 l/m 0,0 km/h N 2,1 C 5,7 C 0,0 km/h
05.02.2021 19:00 5,3 C 80 % 1014,5 hPa 0,0 l/m 0,0 km/h N 2,1 C 5,3 C 0,0 km/h
05.02.2021 20:00 4,8 C 81 % 1014,3 hPa 0,0 l/m 0,0 km/h N 1,8 C 4,8 C 0,0 km/h
05.02.2021 21:00 4,8 C 82 % 1014,1 hPa 0,0 l/m 0,0 km/h N 2,0 C 4,8 C 0,0 km/h
05.02.2021 22:00 4,6 C 82 % 1013,9 hPa 0,0 l/m 0,0 km/h N 1,8 C 4,6 C 0,0 km/h
05.02.2021 23:00 4,1 C 82 % 1013,9 hPa 0,0 l/m 0,0 km/h N 1,3 C 4,1 C 0,0 km/h
06.02.2021 00:00 3,8 C 82 % 1013,5 hPa 0,0 l/m 0,0 km/h N 1,0 C 3,8 C 0,0 km/h
06.02.2021 01:00 3,8 C 82 % 1013,3 hPa 0,0 l/m 0,0 km/h N 1,0 C 3,8 C 0,0 km/h
06.02.2021 02:00 4,2 C 82 % 1013,0 hPa 0,0 l/m 0,0 km/h N 1,4 C 4,2 C 0,0 km/h
06.02.2021 03:00 4,6 C 82 % 1013,1 hPa 0,0 l/m 0,0 km/h N 1,8 C 4,6 C 0,0 km/h
06.02.2021 04:00 4,6 C 82 % 1012,9 hPa 0,0 l/m 0,0 km/h N 1,8 C 4,6 C 0,0 km/h
06.02.2021 05:00 4,5 C 82 % 1012,8 hPa 0,0 l/m 0,0 km/h N 1,7 C 4,5 C 0,0 km/h
06.02.2021 06:00 4,4 C 82 % 1012,6 hPa 0,0 l/m 0,0 km/h N 1,6 C 4,4 C 0,0 km/h
06.02.2021 07:00 4,2 C 82 % 1013,0 hPa 0,0 l/m 0,0 km/h N 1,4 C 4,2 C 0,0 km/h
06.02.2021 08:00 4,2 C 82 % 1012,8 hPa 0,0 l/m 0,0 km/h N 1,4 C 4,2 C 0,0 km/h
06.02.2021 09:00 4,5 C 82 % 1012,6 hPa 0,0 l/m 0,0 km/h N 1,7 C 4,5 C 0,0 km/h
06.02.2021 10:00 4,8 C 82 % 1012,6 hPa 0,0 l/m 0,1 km/h N 2,0 C 4,8 C 0,8 km/h
06.02.2021 11:00 4,5 C 82 % 1012,2 hPa 0,0 l/m 0,1 km/h N 1,7 C 4,5 C 2,4 km/h
06.02.2021 12:00 4,8 C 82 % 1011,6 hPa 0,0 l/m 0,0 km/h N 1,9 C 4,8 C 0,0 km/h
06.02.2021 13:00 5,1 C 82 % 1011,4 hPa 0,0 l/m 0,2 km/h N 2,3 C 5,1 C 3,6 km/h
06.02.2021 14:00 5,1 C 82 % 1011,1 hPa 0,0 l/m 0,3 km/h N 2,3 C 5,1 C 3,6 km/h
06.02.2021 15:00 4,7 C 82 % 1010,8 hPa 0,0 l/m 0,9 km/h N 1,9 C 4,7 C 6,0 km/h
06.02.2021 16:00 4,0 C 82 % 1011,0 hPa 0,3 l/m 0,7 km/h N 1,2 C 4,0 C 5,2 km/h
06.02.2021 17:00 3,5 C 82 % 1010,8 hPa 0,5 l/m 0,5 km/h N 0,7 C 3,5 C 5,2 km/h
06.02.2021 18:00 3,1 C 82 % 1010,7 hPa 0,3 l/m 0,2 km/h N 0,3 C 3,1 C 2,4 km/h
06.02.2021 19:00 2,7 C 82 % 1010,6 hPa 0,5 l/m 0,1 km/h N -0,0 C 2,7 C 2,4 km/h
06.02.2021 20:00 2,4 C 82 % 1010,1 hPa 0,5 l/m 0,2 km/h N -0,4 C 2,4 C 2,8 km/h
06.02.2021 21:00 2,1 C 83 % 1009,5 hPa 0,0 l/m 0,4 km/h N -0,6 C 2,1 C 4,8 km/h
06.02.2021 22:00 2,0 C 83 % 1009,0 hPa 0,5 l/m 0,0 km/h N -0,6 C 2,0 C 1,6 km/h
06.02.2021 23:00 2,1 C 83 % 1008,5 hPa 0,3 l/m 0,2 km/h N -0,4 C 2,1 C 3,2 km/h
07.02.2021 00:00 2,2 C 83 % 1007,8 hPa 0,0 l/m 0,3 km/h N -0,4 C 2,2 C 3,6 km/h
07.02.2021 01:00 2,0 C 83 % 1007,3 hPa 0,3 l/m 1,7 km/h N -0,5 C 2,0 C 5,9 km/h
07.02.2021 02:00 1,8 C 83 % 1006,7 hPa 0,3 l/m 0,0 km/h N -0,7 C 1,8 C 7,2 km/h
07.02.2021 03:00 1,7 C 83 % 1005,8 hPa 0,3 l/m 0,0 km/h N -0,9 C 1,7 C 6,4 km/h
07.02.2021 04:00 1,8 C 83 % 1004,9 hPa 0,5 l/m 0,0 km/h N -0,8 C 1,8 C 4,8 km/h
07.02.2021 05:00 1,8 C 83 % 1003,8 hPa 0,3 l/m 0,0 km/h N -0,8 C 1,8 C 3,2 km/h
07.02.2021 06:00 2,0 C 84 % 1003,1 hPa 0,3 l/m 0,0 km/h N -0,4 C 2,0 C 2,4 km/h
07.02.2021 07:00 2,6 C 84 % 1002,4 hPa 0,3 l/m 0,0 km/h N 0,0 C 2,6 C 1,6 km/h
07.02.2021 08:00 3,3 C 84 % 1002,0 hPa 0,0 l/m 0,0 km/h N 0,8 C 3,3 C 0,8 km/h
07.02.2021 09:00 3,3 C 84 % 1001,8 hPa 0,0 l/m 0,0 km/h N 0,9 C 3,3 C 2,4 km/h
07.02.2021 10:00 3,5 C 84 % 1001,7 hPa 0,3 l/m 0,0 km/h N 1,0 C 3,5 C 8,1 km/h
07.02.2021 11:00 3,3 C 84 % 1001,4 hPa 0,0 l/m 0,0 km/h N 0,9 C 3,3 C 8,1 km/h
07.02.2021 12:00 3,4 C 84 % 1000,7 hPa 0,0 l/m 0,0 km/h N 1,0 C 3,4 C 7,2 km/h
07.02.2021 13:00 3,2 C 84 % 1000,2 hPa 0,3 l/m 0,8 km/h N 0,7 C 3,2 C 8,0 km/h
07.02.2021 14:00 3,0 C 84 % 999,3 hPa 0,0 l/m 0,0 km/h N 0,6 C 3,0 C 4,8 km/h
07.02.2021 15:00 2,2 C 84 % 999,4 hPa 1,0 l/m 0,0 km/h N -0,2 C 2,2 C 6,4 km/h
07.02.2021 16:00 1,8 C 84 % 998,7 hPa 0,5 l/m 0,0 km/h N -0,6 C 1,8 C 0,0 km/h
07.02.2021 17:00 1,5 C 84 % 998,2 hPa 0,0 l/m 0,0 km/h N -1,0 C 1,5 C 4,8 km/h
07.02.2021 18:00 1,3 C 84 % 997,7 hPa 0,0 l/m 0,0 km/h N -1,1 C 1,3 C 4,0 km/h
07.02.2021 19:00 1,3 C 84 % 997,1 hPa 0,5 l/m 0,0 km/h N -1,1 C 1,3 C 3,2 km/h
07.02.2021 20:00 1,1 C 84 % 997,0 hPa 0,3 l/m 0,0 km/h N -1,3 C 1,1 C 4,0 km/h
07.02.2021 21:00 0,1 C 84 % 996,6 hPa 0,3 l/m 0,8 km/h N -2,3 C 0,1 C 6,4 km/h
07.02.2021 22:00 -0,3 C 84 % 995,7 hPa 0,0 l/m 0,0 km/h N -2,6 C -0,3 C 3,2 km/h
07.02.2021 23:00 0,0 C 84 % 995,0 hPa 0,5 l/m 0,0 km/h N -2,4 C 0,0 C 0,0 km/h
Min-Datum _ 01.02.21 04.02.21 07.02.21 - 01.02.21 - 01.02.21 01.02.21 01.02.21
_ Min-Zeit 04:30 04:00 23:00 - 00:00 - 04:30 04:30 00:00
Minimum _ -5,5 C 54 % 995,0 hPa - 0,0 km/h - -7,9 C -5,5 C 0,0 km/h
Max-Datum _ 04.02.21 03.02.21 05.02.21 03.02.21 04.02.21 - 03.02.21 04.02.21 04.02.21
_ Max-Zeit 04:15 21:30 00:30 02:00 09:30 - 22:30 03:45 09:30
Maximum _ 13,0 C 84 % 1017,3 hPa 1,3 l/m 22,0 km/h
N
- 6,9 C 12,9 C 54,7 km/h
N
Durchschnitt _ 3,4 C 79 % 1008,1 hPa #11,4 l/m 1,2 km/h N -0,0 C 3,1 C 5,0 km/h